createdAt,value
2019-03-31T00:00:10.099Z,53.75
2019-03-31T00:01:10.022Z,55.38
2019-03-31T00:02:10.001Z,54.97
2019-03-31T00:03:09.979Z,55.18
2019-03-31T00:04:10.012Z,54.77
2019-03-31T00:05:09.971Z,54.57
2019-03-31T00:06:10.047Z,55.07
2019-03-31T00:07:09.923Z,55.38
2019-03-31T00:08:09.929Z,55.07
2019-03-31T00:09:09.932Z,55.27
2019-03-31T00:10:09.940Z,55.38
2019-03-31T00:11:09.903Z,55.27
2019-03-31T00:12:09.869Z,55.51
2019-03-31T00:13:09.895Z,55.38
2019-03-31T00:14:09.869Z,55.30
2019-03-31T00:15:09.841Z,55.20
2019-03-31T00:16:09.867Z,55.51
2019-03-31T00:17:09.814Z,55.71
2019-03-31T00:18:09.899Z,56.01
2019-03-31T00:19:09.806Z,56.01
2019-03-31T00:20:09.800Z,55.91
2019-03-31T00:21:09.787Z,55.81
2019-03-31T00:22:09.755Z,56.01
2019-03-31T00:23:09.749Z,56.21
2019-03-31T00:24:09.744Z,55.71
2019-03-31T00:25:09.776Z,56.21
2019-03-31T00:26:09.761Z,55.91
2019-03-31T00:27:09.722Z,56.01
2019-03-31T00:28:09.720Z,55.91
2019-03-31T00:29:09.682Z,56.01
2019-03-31T00:30:09.689Z,56.01
2019-03-31T00:31:21.422Z,56.01
2019-03-31T00:32:10.655Z,56.01
2019-03-31T00:33:09.650Z,56.12
2019-03-31T00:34:09.621Z,56.01
2019-03-31T00:35:09.697Z,56.12
2019-03-31T00:36:09.627Z,55.94
2019-03-31T00:37:09.613Z,56.52
2019-03-31T00:38:09.618Z,56.32
2019-03-31T00:39:09.583Z,55.81
2019-03-31T00:40:09.560Z,56.62
2019-03-31T00:41:09.592Z,55.60
2019-03-31T00:42:09.625Z,55.60
2019-03-31T00:43:09.573Z,56.12
2019-03-31T00:44:09.515Z,56.12
2019-03-31T00:45:09.514Z,55.91
2019-03-31T00:46:09.493Z,56.32
2019-03-31T00:47:09.558Z,55.60
2019-03-31T00:48:09.482Z,56.01
2019-03-31T00:49:09.466Z,55.81
2019-03-31T00:50:09.443Z,56.04
2019-03-31T00:51:09.438Z,55.91
2019-03-31T00:52:09.443Z,56.01
2019-03-31T00:53:09.425Z,56.01
2019-03-31T00:54:09.426Z,56.12
2019-03-31T00:55:09.423Z,56.21
2019-03-31T00:56:09.391Z,56.21
2019-03-31T00:57:09.380Z,55.91
2019-03-31T00:58:09.354Z,55.91
2019-03-31T00:59:09.378Z,55.83
2019-03-31T01:00:09.331Z,55.71
2019-03-31T01:01:09.339Z,56.21
2019-03-31T01:02:09.399Z,55.60
2019-03-31T01:03:09.302Z,56.42
2019-03-31T01:04:09.289Z,55.91
2019-03-31T01:05:09.325Z,55.91
2019-03-31T01:06:09.262Z,56.42
2019-03-31T01:07:09.286Z,56.01
2019-03-31T01:08:09.346Z,55.91
2019-03-31T01:09:09.233Z,56.12
2019-03-31T01:10:09.228Z,56.21
2019-03-31T01:11:09.223Z,56.21
2019-03-31T01:12:09.219Z,56.12
2019-03-31T01:13:09.194Z,56.12
2019-03-31T01:14:09.183Z,55.91
2019-03-31T01:15:09.195Z,56.01
2019-03-31T01:16:09.180Z,56.01
2019-03-31T01:17:09.177Z,56.12
2019-03-31T01:18:09.174Z,56.12
2019-03-31T01:19:09.124Z,56.01
2019-03-31T01:20:09.118Z,55.91
2019-03-31T01:21:09.116Z,56.04
2019-03-31T01:22:09.113Z,55.94
2019-03-31T01:23:09.074Z,55.73
2019-03-31T01:24:09.072Z,56.34
2019-03-31T01:25:09.063Z,56.95
2019-03-31T01:26:09.070Z,56.65
2019-03-31T01:27:09.069Z,56.04
2019-03-31T01:28:09.067Z,56.85
2019-03-31T01:29:09.032Z,56.95
2019-03-31T01:30:09.011Z,56.95
2019-03-31T01:31:08.991Z,57.56
2019-03-31T01:32:09.013Z,57.26
2019-03-31T01:33:08.994Z,57.69
2019-03-31T01:34:09.024Z,57.59
2019-03-31T01:35:08.948Z,57.39
2019-03-31T01:36:08.937Z,57.29
2019-03-31T01:37:08.949Z,58.00
2019-03-31T01:38:09.040Z,58.51
2019-03-31T01:39:08.944Z,57.90
2019-03-31T01:40:08.928Z,57.90
2019-03-31T01:41:08.888Z,57.69
2019-03-31T01:42:08.889Z,57.69
2019-03-31T01:43:08.892Z,57.69
2019-03-31T01:44:08.867Z,58.13
2019-03-31T01:45:08.872Z,57.90
2019-03-31T01:46:08.825Z,58.53
2019-03-31T01:47:08.815Z,57.92
2019-03-31T01:48:08.824Z,58.23
2019-03-31T01:49:08.831Z,58.64
2019-03-31T01:50:08.803Z,58.44
2019-03-31T01:51:08.780Z,58.74
2019-03-31T01:52:08.766Z,58.94
2019-03-31T01:53:08.776Z,59.45
2019-03-31T01:54:08.732Z,59.35
2019-03-31T01:55:08.734Z,59.25
2019-03-31T01:56:08.714Z,59.35
2019-03-31T01:57:08.697Z,59.17
2019-03-31T01:58:08.716Z,59.17
2019-03-31T01:59:08.692Z,59.28
2019-03-31T02:00:08.666Z,59.89
2019-03-31T02:01:08.675Z,59.78
2019-03-31T02:02:08.652Z,59.58
2019-03-31T02:03:08.674Z,59.78
2019-03-31T02:04:08.624Z,59.58
2019-03-31T02:05:08.605Z,59.89
2019-03-31T02:06:08.610Z,59.48
2019-03-31T02:07:08.647Z,59.89
2019-03-31T02:08:08.595Z,60.09
2019-03-31T02:09:08.566Z,60.19
2019-03-31T02:10:08.590Z,60.39
2019-03-31T02:11:08.544Z,60.42
2019-03-31T02:12:08.545Z,60.42
2019-03-31T02:13:08.571Z,60.93
2019-03-31T02:14:08.505Z,60.73
2019-03-31T02:15:08.496Z,60.83
2019-03-31T02:16:08.502Z,60.63
2019-03-31T02:17:08.503Z,60.93
2019-03-31T02:18:08.500Z,60.73
2019-03-31T02:19:09.642Z,61.44
2019-03-31T02:20:08.442Z,61.16
2019-03-31T02:21:08.461Z,61.37
2019-03-31T02:22:08.437Z,61.07
2019-03-31T02:23:08.420Z,61.14
2019-03-31T02:24:08.459Z,61.47
2019-03-31T02:25:08.382Z,61.44
2019-03-31T02:26:08.373Z,61.54
2019-03-31T02:27:08.384Z,61.88
2019-03-31T02:28:08.360Z,62.16
2019-03-31T02:29:08.368Z,62.49
2019-03-31T02:30:08.352Z,62.18
2019-03-31T02:31:08.312Z,61.78
2019-03-31T02:32:22.567Z,61.85
2019-03-31T02:33:09.301Z,62.18
2019-03-31T02:34:08.309Z,61.68
2019-03-31T02:35:08.296Z,62.08
2019-03-31T02:36:08.276Z,62.49
2019-03-31T02:37:08.269Z,61.88
2019-03-31T02:38:08.245Z,62.39
2019-03-31T02:39:08.272Z,62.49
2019-03-31T02:40:08.242Z,62.29
2019-03-31T02:41:08.287Z,62.39
2019-03-31T02:42:08.243Z,62.18
2019-03-31T02:43:08.205Z,62.52
2019-03-31T02:44:08.213Z,62.73
2019-03-31T02:45:08.229Z,62.70
2019-03-31T02:46:08.163Z,63.03
2019-03-31T02:47:08.144Z,62.82
2019-03-31T02:48:08.125Z,62.82
2019-03-31T02:49:08.164Z,63.51
2019-03-31T02:50:08.111Z,62.93
2019-03-31T02:51:08.115Z,63.13
2019-03-31T02:52:08.111Z,63.03
2019-03-31T02:53:08.086Z,63.00
2019-03-31T02:54:08.125Z,63.44
2019-03-31T02:55:08.104Z,63.20
2019-03-31T02:56:08.061Z,63.75
2019-03-31T02:57:08.099Z,63.54
2019-03-31T02:58:08.008Z,63.54
2019-03-31T02:59:08.020Z,63.85
2019-03-31T03:00:08.007Z,63.44
2019-03-31T03:01:08.010Z,63.75
2019-03-31T03:02:07.993Z,63.64
2019-03-31T03:03:07.969Z,64.05
2019-03-31T03:04:08.219Z,64.36
2019-03-31T03:05:18.911Z,64.36
2019-03-31T03:06:08.949Z,63.95
2019-03-31T03:07:07.950Z,63.95
2019-03-31T03:08:07.911Z,63.85
2019-03-31T03:09:08.019Z,64.05
2019-03-31T03:10:07.890Z,64.08
2019-03-31T03:11:07.881Z,64.05
2019-03-31T03:12:07.864Z,64.36
2019-03-31T03:13:07.854Z,64.15
2019-03-31T03:14:07.858Z,64.28
2019-03-31T03:15:07.835Z,64.15
2019-03-31T03:16:07.821Z,64.36
2019-03-31T03:17:07.817Z,64.28
2019-03-31T03:18:07.816Z,64.49
2019-03-31T03:19:07.803Z,64.36
2019-03-31T03:20:07.781Z,64.76
2019-03-31T03:21:07.773Z,64.59
2019-03-31T03:22:07.793Z,65.00
2019-03-31T03:23:07.733Z,64.90
2019-03-31T03:24:07.760Z,64.90
2019-03-31T03:25:07.733Z,65.00
2019-03-31T03:26:07.749Z,64.90
2019-03-31T03:27:07.699Z,64.59
2019-03-31T03:28:07.690Z,64.90
2019-03-31T03:29:07.707Z,65.00
2019-03-31T03:30:07.683Z,65.00
2019-03-31T03:31:14.692Z,65.00
2019-03-31T03:32:08.674Z,65.00
2019-03-31T03:33:17.584Z,65.10
2019-03-31T03:34:08.648Z,65.34
2019-03-31T03:35:07.599Z,65.34
2019-03-31T03:36:07.595Z,65.00
2019-03-31T03:37:07.579Z,64.79
2019-03-31T03:38:07.564Z,65.03
2019-03-31T03:39:07.572Z,65.00
2019-03-31T03:40:07.576Z,65.23
2019-03-31T03:41:07.588Z,65.03
2019-03-31T03:42:07.529Z,64.93
2019-03-31T03:43:07.513Z,65.13
2019-03-31T03:44:07.526Z,64.93
2019-03-31T03:45:07.488Z,65.03
2019-03-31T03:46:07.492Z,65.23
2019-03-31T03:47:07.487Z,65.13
2019-03-31T03:48:07.563Z,65.13
2019-03-31T03:49:07.550Z,65.44
2019-03-31T03:50:07.432Z,65.57
2019-03-31T03:51:07.433Z,65.34
2019-03-31T03:52:07.422Z,65.13
2019-03-31T03:53:07.408Z,65.54
2019-03-31T03:54:07.396Z,65.26
2019-03-31T03:55:07.438Z,65.44
2019-03-31T03:56:07.382Z,65.34
2019-03-31T03:57:07.363Z,65.47
2019-03-31T03:58:07.369Z,65.26
2019-03-31T03:59:07.364Z,65.26
2019-03-31T04:00:07.357Z,65.26
2019-03-31T04:01:07.316Z,65.47
2019-03-31T04:02:07.304Z,65.77
2019-03-31T04:03:07.280Z,65.47
2019-03-31T04:04:07.277Z,65.47
2019-03-31T04:05:07.297Z,65.88
2019-03-31T04:06:07.272Z,65.88
2019-03-31T04:07:07.267Z,65.98
2019-03-31T04:08:07.233Z,65.67
2019-03-31T04:09:07.237Z,65.88
2019-03-31T04:10:07.234Z,65.77
2019-03-31T04:11:07.252Z,65.88
2019-03-31T04:12:07.212Z,65.47
2019-03-31T04:13:07.177Z,65.57
2019-03-31T04:14:07.163Z,65.37
2019-03-31T04:15:07.163Z,66.08
2019-03-31T04:16:07.169Z,66.39
2019-03-31T04:17:07.128Z,66.59
2019-03-31T04:18:07.111Z,66.42
2019-03-31T04:19:07.103Z,66.93
2019-03-31T04:20:07.210Z,66.83
2019-03-31T04:21:07.099Z,66.83
2019-03-31T04:22:07.079Z,66.83
2019-03-31T04:23:07.101Z,66.83
2019-03-31T04:24:07.051Z,66.83
2019-03-31T04:25:07.058Z,66.83
2019-03-31T04:26:07.038Z,67.03
2019-03-31T04:27:07.049Z,67.03
2019-03-31T04:28:07.027Z,66.72
2019-03-31T04:29:07.029Z,67.24
2019-03-31T04:30:07.017Z,67.34
2019-03-31T04:31:06.970Z,67.34
2019-03-31T04:32:06.977Z,67.27
2019-03-31T04:33:06.954Z,67.07
2019-03-31T04:34:06.939Z,67.16
2019-03-31T04:35:06.945Z,67.16
2019-03-31T04:36:06.951Z,66.96
2019-03-31T04:37:06.900Z,67.07
2019-03-31T04:38:06.910Z,67.68
2019-03-31T04:39:06.917Z,67.78
2019-03-31T04:40:06.874Z,67.78
2019-03-31T04:41:06.875Z,67.68
2019-03-31T04:42:06.847Z,67.78
2019-03-31T04:43:06.849Z,67.57
2019-03-31T04:44:06.859Z,67.88
2019-03-31T04:45:06.885Z,67.47
2019-03-31T04:46:06.901Z,67.47
2019-03-31T04:47:06.791Z,67.37
2019-03-31T04:48:06.785Z,67.47
2019-03-31T04:49:06.784Z,67.68
2019-03-31T04:50:06.768Z,67.68
2019-03-31T04:51:06.906Z,67.78
2019-03-31T04:52:06.733Z,68.42
2019-03-31T04:53:06.727Z,68.73
2019-03-31T04:54:06.746Z,68.73
2019-03-31T04:55:06.705Z,68.70
2019-03-31T04:56:06.762Z,68.52
2019-03-31T04:57:06.670Z,68.42
2019-03-31T04:58:06.667Z,68.93
2019-03-31T04:59:06.660Z,69.34
2019-03-31T05:00:06.653Z,68.84
2019-03-31T05:01:06.673Z,68.52
2019-03-31T05:02:06.624Z,69.04
2019-03-31T05:03:06.637Z,68.93
2019-03-31T05:04:06.595Z,68.32
2019-03-31T05:05:06.589Z,68.35
2019-03-31T05:06:06.604Z,69.34
2019-03-31T05:07:06.587Z,68.55
2019-03-31T05:08:06.560Z,68.84
2019-03-31T05:09:06.553Z,68.32
2019-03-31T05:10:06.547Z,68.32
2019-03-31T05:11:06.529Z,68.25
2019-03-31T05:12:06.533Z,68.76
2019-03-31T05:13:06.541Z,68.93
2019-03-31T05:14:06.492Z,68.76
2019-03-31T05:15:06.471Z,68.66
2019-03-31T05:16:06.482Z,68.97
2019-03-31T05:17:06.484Z,68.76
2019-03-31T05:18:06.463Z,68.66
2019-03-31T05:19:06.518Z,69.10
2019-03-31T05:20:06.423Z,69.48
2019-03-31T05:21:06.481Z,69.20
2019-03-31T05:22:06.425Z,69.00
2019-03-31T05:23:06.408Z,69.20
2019-03-31T05:24:06.377Z,69.41
2019-03-31T05:25:06.440Z,69.71
2019-03-31T05:26:06.370Z,69.00
2019-03-31T05:27:06.359Z,69.07
2019-03-31T05:28:06.352Z,69.41
2019-03-31T05:29:06.332Z,69.31
2019-03-31T05:30:06.329Z,69.41
2019-03-31T05:31:06.306Z,69.31
2019-03-31T05:32:06.333Z,69.10
2019-03-31T05:33:06.277Z,69.61
2019-03-31T05:34:18.336Z,68.90
2019-03-31T05:35:07.251Z,69.31
2019-03-31T05:36:06.236Z,69.41
2019-03-31T05:37:06.248Z,69.41
2019-03-31T05:38:06.223Z,69.41
2019-03-31T05:39:06.231Z,69.31
2019-03-31T05:40:06.205Z,69.41
2019-03-31T05:41:06.191Z,69.41
2019-03-31T05:42:06.195Z,69.31
2019-03-31T05:43:06.170Z,69.92
2019-03-31T05:44:06.259Z,69.31
2019-03-31T05:45:06.152Z,69.71
2019-03-31T05:46:06.141Z,69.31
2019-03-31T05:47:06.143Z,70.23
2019-03-31T05:48:06.107Z,70.03
2019-03-31T05:49:06.133Z,70.12
2019-03-31T05:50:06.111Z,69.92
2019-03-31T05:51:06.089Z,69.61
2019-03-31T05:52:06.097Z,70.12
2019-03-31T05:53:06.055Z,69.31
2019-03-31T05:54:06.045Z,69.61
2019-03-31T05:55:06.053Z,69.44
2019-03-31T05:56:06.045Z,70.06
2019-03-31T05:57:06.037Z,69.95
2019-03-31T05:58:06.013Z,69.85
2019-03-31T05:59:05.988Z,69.75
2019-03-31T06:00:05.980Z,69.24
2019-03-31T06:01:05.976Z,69.24
2019-03-31T06:02:05.994Z,70.06
2019-03-31T06:03:05.962Z,70.06
2019-03-31T06:04:05.934Z,70.06
2019-03-31T06:05:05.927Z,70.16
2019-03-31T06:06:05.910Z,70.19
2019-03-31T06:07:05.924Z,70.40
2019-03-31T06:08:06.579Z,70.19
2019-03-31T06:09:05.922Z,70.47
2019-03-31T06:10:05.868Z,70.06
2019-03-31T06:11:05.855Z,69.37
2019-03-31T06:12:05.882Z,69.78
2019-03-31T06:13:05.846Z,69.98
2019-03-31T06:14:05.855Z,69.54
2019-03-31T06:15:05.815Z,70.19
2019-03-31T06:16:05.802Z,69.57
2019-03-31T06:17:05.798Z,69.68
2019-03-31T06:18:05.807Z,69.24
2019-03-31T06:19:05.778Z,69.54
2019-03-31T06:20:05.751Z,68.86
2019-03-31T06:21:05.748Z,69.27
2019-03-31T06:22:05.745Z,69.65
2019-03-31T06:23:05.740Z,68.83
2019-03-31T06:24:05.758Z,68.73
2019-03-31T06:25:06.104Z,68.93
2019-03-31T06:26:05.697Z,68.83
2019-03-31T06:27:05.674Z,68.86
2019-03-31T06:28:05.686Z,68.52
2019-03-31T06:29:05.688Z,68.62
2019-03-31T06:30:05.659Z,69.65
2019-03-31T06:31:05.633Z,68.73
2019-03-31T06:32:05.637Z,69.17
2019-03-31T06:33:05.632Z,68.76
2019-03-31T06:34:05.603Z,69.06
2019-03-31T06:35:05.593Z,69.24
2019-03-31T06:36:05.651Z,69.17
2019-03-31T06:37:05.575Z,69.06
2019-03-31T06:38:05.599Z,69.03
2019-03-31T06:39:05.541Z,68.73
2019-03-31T06:40:05.538Z,68.73
2019-03-31T06:41:05.722Z,69.13
2019-03-31T06:42:05.578Z,68.96
2019-03-31T06:43:05.525Z,69.27
2019-03-31T06:44:05.483Z,68.93
2019-03-31T06:45:05.512Z,69.13
2019-03-31T06:46:05.464Z,68.93
2019-03-31T06:47:05.571Z,69.03
2019-03-31T06:48:05.579Z,68.41
2019-03-31T06:49:05.445Z,68.62
2019-03-31T06:50:05.420Z,69.54
2019-03-31T06:51:05.412Z,68.62
2019-03-31T06:52:05.406Z,68.52
2019-03-31T06:53:05.437Z,68.90
2019-03-31T06:54:05.415Z,69.92
2019-03-31T06:55:05.361Z,72.28
2019-03-31T06:56:05.369Z,71.36
2019-03-31T06:57:05.352Z,70.53
2019-03-31T06:58:05.339Z,70.64
2019-03-31T06:59:05.357Z,70.33
2019-03-31T07:00:05.327Z,68.69
2019-03-31T07:01:05.299Z,69.07
2019-03-31T07:02:05.298Z,67.84
2019-03-31T07:03:05.289Z,67.16
2019-03-31T07:04:05.321Z,67.05
2019-03-31T07:05:05.261Z,67.05
2019-03-31T07:06:05.255Z,66.85
2019-03-31T07:07:05.304Z,66.95
2019-03-31T07:08:05.337Z,66.95
2019-03-31T07:09:05.290Z,65.52
2019-03-31T07:10:05.229Z,65.83
2019-03-31T07:11:05.231Z,66.34
2019-03-31T07:12:05.248Z,66.54
2019-03-31T07:13:05.193Z,65.21
2019-03-31T07:14:06.094Z,65.62
2019-03-31T07:15:06.121Z,65.83
2019-03-31T07:16:05.182Z,65.83
2019-03-31T07:17:05.134Z,65.72
2019-03-31T07:18:05.147Z,66.03
2019-03-31T07:19:05.186Z,66.13
2019-03-31T07:20:05.131Z,65.49
2019-03-31T07:21:05.125Z,65.49
2019-03-31T07:22:05.138Z,65.59
2019-03-31T07:23:05.076Z,64.98
2019-03-31T07:24:05.125Z,64.47
2019-03-31T07:25:05.027Z,64.57
2019-03-31T07:26:05.071Z,64.57
2019-03-31T07:27:05.043Z,64.33
2019-03-31T07:28:05.054Z,64.64
2019-03-31T07:29:05.095Z,63.82
2019-03-31T07:30:07.208Z,64.13
2019-03-31T07:31:05.035Z,63.31
2019-03-31T07:32:04.966Z,63.00
2019-03-31T07:33:05.088Z,63.41
2019-03-31T07:34:04.990Z,63.07
2019-03-31T07:35:17.781Z,63.07
2019-03-31T07:36:05.957Z,63.07
2019-03-31T07:37:04.950Z,63.48
2019-03-31T07:38:04.914Z,62.98
2019-03-31T07:39:05.020Z,63.28
2019-03-31T07:40:05.093Z,63.07
2019-03-31T07:41:12.498Z,63.18
2019-03-31T07:42:05.910Z,63.59
2019-03-31T07:43:05.203Z,63.07
2019-03-31T07:44:04.898Z,63.07
2019-03-31T07:45:04.962Z,62.98
2019-03-31T07:46:04.793Z,62.87
2019-03-31T07:47:04.836Z,62.98
2019-03-31T07:48:07.945Z,62.87
2019-03-31T07:49:04.758Z,62.77
2019-03-31T07:50:04.916Z,62.77
2019-03-31T07:51:04.753Z,62.66
2019-03-31T07:52:04.730Z,62.36
2019-03-31T07:53:04.741Z,62.77
2019-03-31T07:54:04.735Z,62.46
2019-03-31T07:55:04.797Z,62.46
2019-03-31T07:56:04.749Z,62.43
2019-03-31T07:57:06.965Z,62.77
2019-03-31T07:58:04.703Z,62.87
2019-03-31T07:59:04.761Z,62.87
2019-03-31T08:00:04.700Z,62.77
2019-03-31T08:01:04.635Z,62.57
2019-03-31T08:02:04.765Z,62.77
2019-03-31T08:03:04.596Z,62.57
2019-03-31T08:04:04.601Z,62.26
2019-03-31T08:05:04.709Z,62.66
2019-03-31T08:06:04.593Z,62.46
2019-03-31T08:07:04.605Z,62.87
2019-03-31T08:08:04.621Z,63.28
2019-03-31T08:09:04.558Z,63.48
2019-03-31T08:10:04.557Z,63.28
2019-03-31T08:11:04.558Z,63.28
2019-03-31T08:12:04.516Z,63.18
2019-03-31T08:13:04.502Z,63.28
2019-03-31T08:14:04.480Z,63.48
2019-03-31T08:15:04.528Z,63.18
2019-03-31T08:16:04.460Z,63.39
2019-03-31T08:17:04.487Z,63.28
2019-03-31T08:18:04.443Z,63.39
2019-03-31T08:19:04.423Z,63.59
2019-03-31T08:20:04.477Z,63.41
2019-03-31T08:21:04.442Z,63.28
2019-03-31T08:22:04.413Z,63.48
2019-03-31T08:23:04.418Z,63.39
2019-03-31T08:24:06.688Z,63.39
2019-03-31T08:25:04.431Z,63.28
2019-03-31T08:26:04.398Z,63.07
2019-03-31T08:27:05.690Z,63.07
2019-03-31T08:28:04.410Z,63.48
2019-03-31T08:29:04.336Z,62.98
2019-03-31T08:30:04.377Z,62.98
2019-03-31T08:31:04.310Z,62.87
2019-03-31T08:32:04.313Z,62.46
2019-03-31T08:33:04.295Z,62.57
2019-03-31T08:34:05.153Z,62.02
2019-03-31T08:35:04.244Z,62.43
2019-03-31T08:36:04.613Z,62.43
2019-03-31T08:37:04.232Z,62.02
2019-03-31T08:38:04.292Z,61.38
2019-03-31T08:39:04.204Z,61.08
2019-03-31T08:40:04.234Z,60.97
2019-03-31T08:41:04.544Z,60.46
2019-03-31T08:42:04.164Z,60.77
2019-03-31T08:43:04.152Z,59.85
2019-03-31T08:44:04.134Z,59.75
2019-03-31T08:45:04.131Z,59.75
2019-03-31T08:46:04.194Z,59.44
2019-03-31T08:47:04.108Z,59.75
2019-03-31T08:48:04.098Z,60.05
2019-03-31T08:49:04.199Z,60.39
2019-03-31T08:50:04.225Z,60.39
2019-03-31T08:51:04.122Z,60.28
2019-03-31T08:52:04.078Z,60.28
2019-03-31T08:53:04.049Z,60.46
2019-03-31T08:54:04.039Z,59.85
2019-03-31T08:55:04.045Z,59.55
2019-03-31T08:56:04.062Z,59.75
2019-03-31T08:57:04.000Z,59.95
2019-03-31T08:58:04.009Z,59.75
2019-03-31T08:59:03.974Z,59.34
2019-03-31T09:00:03.960Z,58.62
2019-03-31T09:01:03.960Z,57.78
2019-03-31T09:02:04.058Z,58.83
2019-03-31T09:03:03.994Z,58.11
2019-03-31T09:04:03.912Z,58.22
2019-03-31T09:05:03.917Z,59.16
2019-03-31T09:06:03.979Z,59.75
2019-03-31T09:07:03.890Z,59.55
2019-03-31T09:08:03.997Z,59.34
2019-03-31T09:09:03.870Z,59.23
2019-03-31T09:10:03.848Z,59.64
2019-03-31T09:11:03.915Z,59.34
2019-03-31T09:12:04.179Z,59.27
2019-03-31T09:13:03.816Z,59.34
2019-03-31T09:14:03.876Z,59.34
2019-03-31T09:15:03.845Z,59.14
2019-03-31T09:16:03.833Z,60.05
2019-03-31T09:17:03.801Z,59.57
2019-03-31T09:18:03.805Z,60.16
2019-03-31T09:19:03.771Z,59.95
2019-03-31T09:20:03.741Z,60.05
2019-03-31T09:21:03.767Z,59.85
2019-03-31T09:22:03.715Z,59.75
2019-03-31T09:23:03.773Z,59.75
2019-03-31T09:24:03.704Z,60.26
2019-03-31T09:25:03.711Z,59.85
2019-03-31T09:26:03.753Z,60.05
2019-03-31T09:27:03.662Z,59.34
2019-03-31T09:28:03.679Z,59.64
2019-03-31T09:29:03.670Z,60.05
2019-03-31T09:30:03.697Z,59.11
2019-03-31T09:31:04.590Z,60.16
2019-03-31T09:32:04.354Z,59.41
2019-03-31T09:33:06.706Z,59.85
2019-03-31T09:34:03.623Z,59.14
2019-03-31T09:35:03.568Z,59.72
2019-03-31T09:36:15.582Z,60.05
2019-03-31T09:37:04.571Z,60.16
2019-03-31T09:38:03.541Z,60.26
2019-03-31T09:39:03.528Z,60.26
2019-03-31T09:40:03.516Z,59.78
2019-03-31T09:41:03.517Z,59.98
2019-03-31T09:42:03.523Z,60.08
2019-03-31T09:43:03.488Z,59.85
2019-03-31T09:44:03.482Z,59.85
2019-03-31T09:45:03.493Z,60.19
2019-03-31T09:46:03.534Z,60.69
2019-03-31T09:47:03.459Z,61.00
2019-03-31T09:48:03.442Z,61.41
2019-03-31T09:49:03.460Z,62.43
2019-03-31T09:50:03.430Z,62.63
2019-03-31T09:51:03.404Z,62.63
2019-03-31T09:52:03.429Z,62.74
2019-03-31T09:53:03.381Z,62.33
2019-03-31T09:54:03.364Z,62.13
2019-03-31T09:55:03.347Z,61.72
2019-03-31T09:56:03.342Z,61.21
2019-03-31T09:57:03.352Z,60.90
2019-03-31T09:58:03.326Z,60.39
2019-03-31T09:59:03.420Z,60.60
2019-03-31T10:00:03.310Z,60.60
2019-03-31T10:01:03.294Z,59.88
2019-03-31T10:02:03.297Z,59.47
2019-03-31T10:03:03.300Z,58.68
2019-03-31T10:04:03.271Z,58.27
2019-03-31T10:05:03.241Z,58.98
2019-03-31T10:06:10.461Z,59.60
2019-03-31T10:07:04.251Z,60.21
2019-03-31T10:08:03.205Z,59.91
2019-03-31T10:09:03.188Z,59.60
2019-03-31T10:10:03.248Z,60.08
2019-03-31T10:11:03.227Z,59.70
2019-03-31T10:12:03.178Z,59.98
2019-03-31T10:13:03.148Z,59.88
2019-03-31T10:14:03.128Z,59.67
2019-03-31T10:15:03.122Z,60.28
2019-03-31T10:16:03.139Z,59.67
2019-03-31T10:17:03.099Z,59.37
2019-03-31T10:18:03.150Z,59.57
2019-03-31T10:19:03.073Z,59.37
2019-03-31T10:20:03.085Z,59.47
2019-03-31T10:21:03.064Z,59.67
2019-03-31T10:22:03.039Z,59.03
2019-03-31T10:23:03.062Z,58.25
2019-03-31T10:24:03.102Z,58.42
2019-03-31T10:25:03.007Z,57.91
2019-03-31T10:26:02.994Z,58.11
2019-03-31T10:27:03.010Z,58.39
2019-03-31T10:28:03.012Z,56.12
2019-03-31T10:29:03.239Z,51.95
2019-03-31T10:30:03.099Z,49.44
2019-03-31T10:31:02.944Z,48.46
2019-03-31T10:32:02.928Z,49.08
2019-03-31T10:33:02.947Z,48.42
2019-03-31T10:34:02.913Z,47.91
2019-03-31T10:35:02.929Z,47.53
2019-03-31T10:36:02.882Z,48.87
2019-03-31T10:37:02.871Z,49.10
2019-03-31T10:38:02.874Z,49.10
2019-03-31T10:39:02.902Z,49.63
2019-03-31T10:40:02.861Z,49.22
2019-03-31T10:41:02.889Z,50.47
2019-03-31T10:42:02.814Z,50.80
2019-03-31T10:43:02.809Z,50.90
2019-03-31T10:44:02.815Z,51.13
2019-03-31T10:45:02.787Z,51.23
2019-03-31T10:46:02.767Z,52.25
2019-03-31T10:47:02.755Z,52.25
2019-03-31T10:48:02.760Z,52.48
2019-03-31T10:49:02.747Z,52.68
2019-03-31T10:50:02.727Z,53.19
2019-03-31T10:51:02.732Z,53.70
2019-03-31T10:52:02.697Z,53.42
2019-03-31T10:53:02.687Z,53.31
2019-03-31T10:54:04.556Z,52.76
2019-03-31T10:55:02.670Z,51.92
2019-03-31T10:56:02.698Z,49.38
2019-03-31T10:57:02.643Z,48.71
2019-03-31T10:58:02.636Z,45.35
2019-03-31T10:59:02.644Z,42.74
2019-03-31T11:00:02.623Z,43.59
2019-03-31T11:01:02.593Z,43.41
2019-03-31T11:02:02.590Z,42.54
2019-03-31T11:03:02.650Z,39.90
2019-03-31T11:04:02.589Z,36.87
2019-03-31T11:05:02.556Z,34.67
2019-03-31T11:06:02.549Z,32.81
2019-03-31T11:07:03.622Z,30.78
2019-03-31T11:08:02.524Z,29.14
2019-03-31T11:09:02.574Z,29.13
2019-03-31T11:10:02.558Z,28.31
2019-03-31T11:11:02.490Z,27.89
2019-03-31T11:12:02.492Z,27.15
2019-03-31T11:13:02.481Z,26.26
2019-03-31T11:14:02.471Z,25.84
2019-03-31T11:15:02.485Z,24.91
2019-03-31T11:16:02.450Z,24.21
2019-03-31T11:17:02.450Z,24.23
2019-03-31T11:18:02.437Z,24.87
2019-03-31T11:19:02.415Z,25.32
2019-03-31T11:20:02.459Z,26.07
2019-03-31T11:21:02.389Z,27.81
2019-03-31T11:22:02.418Z,28.33
2019-03-31T11:23:02.372Z,29.27
2019-03-31T11:24:02.348Z,30.40
2019-03-31T11:25:02.367Z,30.24
2019-03-31T11:26:02.334Z,31.27
2019-03-31T11:27:02.320Z,32.11
2019-03-31T11:28:02.310Z,33.23
2019-03-31T11:29:02.296Z,34.17
2019-03-31T11:30:02.326Z,35.10
2019-03-31T11:31:02.277Z,35.31
2019-03-31T11:32:02.284Z,35.83
2019-03-31T11:33:02.260Z,36.46
2019-03-31T11:34:02.244Z,36.68
2019-03-31T11:35:02.275Z,38.01
2019-03-31T11:36:02.223Z,38.21
2019-03-31T11:37:12.828Z,38.53
2019-03-31T11:38:03.207Z,39.06
2019-03-31T11:39:02.207Z,39.78
2019-03-31T11:40:02.212Z,40.29
2019-03-31T11:41:02.176Z,40.91
2019-03-31T11:42:02.149Z,40.83
2019-03-31T11:43:02.143Z,41.16
2019-03-31T11:44:02.137Z,41.99
2019-03-31T11:45:02.168Z,42.21
2019-03-31T11:46:02.106Z,42.82
2019-03-31T11:47:02.111Z,43.14
2019-03-31T11:48:02.103Z,43.55
2019-03-31T11:49:02.070Z,43.26
2019-03-31T11:50:02.171Z,43.55
2019-03-31T11:51:02.084Z,43.67
2019-03-31T11:52:02.049Z,43.57
2019-03-31T11:53:02.171Z,41.50
2019-03-31T11:54:02.019Z,38.34
2019-03-31T11:55:02.033Z,37.15
2019-03-31T11:56:02.048Z,37.26
2019-03-31T11:57:01.997Z,37.38
2019-03-31T11:58:01.967Z,35.73
2019-03-31T11:59:02.075Z,34.54
2019-03-31T12:00:01.992Z,32.17
2019-03-31T12:01:01.979Z,30.71
2019-03-31T12:02:01.933Z,29.98
2019-03-31T12:03:01.938Z,29.14
2019-03-31T12:04:01.940Z,27.80
2019-03-31T12:05:01.892Z,27.36
2019-03-31T12:06:01.900Z,26.93
2019-03-31T12:07:01.880Z,25.70
2019-03-31T12:08:01.887Z,25.09
2019-03-31T12:09:01.924Z,25.36
2019-03-31T12:10:01.847Z,27.14
2019-03-31T12:11:02.213Z,25.15
2019-03-31T12:12:01.995Z,23.07
2019-03-31T12:13:02.145Z,24.60
2019-03-31T12:14:01.806Z,25.12
2019-03-31T12:15:01.852Z,25.74
2019-03-31T12:16:02.283Z,25.12
2019-03-31T12:17:01.840Z,23.53
2019-03-31T12:18:01.784Z,23.44
2019-03-31T12:19:01.757Z,24.45
2019-03-31T12:20:01.805Z,25.04
2019-03-31T12:21:01.879Z,23.04
2019-03-31T12:22:01.781Z,23.04
2019-03-31T12:23:01.786Z,23.16
2019-03-31T12:24:01.724Z,24.48
2019-03-31T12:25:01.740Z,25.60
2019-03-31T12:26:01.680Z,26.79
2019-03-31T12:27:01.742Z,25.20
2019-03-31T12:28:01.666Z,26.20
2019-03-31T12:29:01.672Z,26.31
2019-03-31T12:30:01.632Z,25.60
2019-03-31T12:31:01.640Z,26.20
2019-03-31T12:32:01.748Z,26.01
2019-03-31T12:33:01.957Z,26.10
2019-03-31T12:34:01.643Z,27.41
2019-03-31T12:35:01.645Z,25.99
2019-03-31T12:36:01.604Z,27.11
2019-03-31T12:37:02.225Z,28.02
2019-03-31T12:38:01.596Z,26.45
2019-03-31T12:39:01.568Z,25.56
2019-03-31T12:40:01.689Z,26.77
2019-03-31T12:41:02.168Z,27.31
2019-03-31T12:42:01.538Z,27.83
2019-03-31T12:43:01.520Z,27.86
2019-03-31T12:44:01.474Z,27.76
2019-03-31T12:45:01.469Z,28.28
2019-03-31T12:46:01.441Z,28.18
2019-03-31T12:47:01.477Z,29.81
2019-03-31T12:48:01.707Z,30.63
2019-03-31T12:49:01.441Z,29.94
2019-03-31T12:50:01.466Z,31.06
2019-03-31T12:51:01.390Z,31.98
2019-03-31T12:52:03.190Z,31.18